sensor_id;sensor_type;location;lat;lon;timestamp;temperature;humidity
24426;DHT22;12611;44.446;26.000;2023-04-05T00:01:14;8.80;97.60
24426;DHT22;12611;44.446;26.000;2023-04-05T00:03:45;8.80;97.60
24426;DHT22;12611;44.446;26.000;2023-04-05T00:06:14;8.80;97.60
24426;DHT22;12611;44.446;26.000;2023-04-05T00:08:43;8.80;97.60
24426;DHT22;12611;44.446;26.000;2023-04-05T00:11:17;8.80;97.60
24426;DHT22;12611;44.446;26.000;2023-04-05T00:13:45;8.80;97.60
24426;DHT22;12611;44.446;26.000;2023-04-05T00:16:14;8.80;97.60
24426;DHT22;12611;44.446;26.000;2023-04-05T00:18:43;8.80;97.60
24426;DHT22;12611;44.446;26.000;2023-04-05T00:21:16;8.80;97.60
24426;DHT22;12611;44.446;26.000;2023-04-05T00:23:47;8.80;97.60
24426;DHT22;12611;44.446;26.000;2023-04-05T00:26:19;8.80;97.50
24426;DHT22;12611;44.446;26.000;2023-04-05T00:28:48;8.90;97.50
24426;DHT22;12611;44.446;26.000;2023-04-05T00:31:16;8.80;97.50
24426;DHT22;12611;44.446;26.000;2023-04-05T00:33:45;8.90;97.50
24426;DHT22;12611;44.446;26.000;2023-04-05T00:36:14;8.80;97.50
24426;DHT22;12611;44.446;26.000;2023-04-05T00:38:44;8.90;97.50
24426;DHT22;12611;44.446;26.000;2023-04-05T00:41:13;8.90;97.50
24426;DHT22;12611;44.446;26.000;2023-04-05T00:43:43;8.90;97.50
24426;DHT22;12611;44.446;26.000;2023-04-05T00:46:12;8.80;97.60
24426;DHT22;12611;44.446;26.000;2023-04-05T00:48:40;8.80;97.60
24426;DHT22;12611;44.446;26.000;2023-04-05T00:51:09;8.80;97.60
24426;DHT22;12611;44.446;26.000;2023-04-05T00:53:38;8.80;97.70
24426;DHT22;12611;44.446;26.000;2023-04-05T00:56:08;8.80;97.70
24426;DHT22;12611;44.446;26.000;2023-04-05T00:58:39;8.80;97.70
24426;DHT22;12611;44.446;26.000;2023-04-05T01:01:15;8.80;97.70
24426;DHT22;12611;44.446;26.000;2023-04-05T01:03:48;8.80;97.70
24426;DHT22;12611;44.446;26.000;2023-04-05T01:06:27;8.80;97.80
24426;DHT22;12611;44.446;26.000;2023-04-05T01:09:03;8.80;97.80
24426;DHT22;12611;44.446;26.000;2023-04-05T01:11:32;8.80;97.80
24426;DHT22;12611;44.446;26.000;2023-04-05T01:14:02;8.70;97.90
24426;DHT22;12611;44.446;26.000;2023-04-05T01:16:32;8.80;97.90
24426;DHT22;12611;44.446;26.000;2023-04-05T01:19:00;8.80;98.30
24426;DHT22;12611;44.446;26.000;2023-04-05T01:21:53;8.90;98.20
24426;DHT22;12611;44.446;26.000;2023-04-05T01:24:34;8.90;97.90
24426;DHT22;12611;44.446;26.000;2023-04-05T01:27:07;8.90;97.90
24426;DHT22;12611;44.446;26.000;2023-04-05T01:29:50;8.90;97.90
24426;DHT22;12611;44.446;26.000;2023-04-05T01:32:39;8.90;97.90
24426;DHT22;12611;44.446;26.000;2023-04-05T01:35:13;8.90;98.00
24426;DHT22;12611;44.446;26.000;2023-04-05T01:37:47;8.90;98.00
24426;DHT22;12611;44.446;26.000;2023-04-05T01:40:17;8.90;97.90
24426;DHT22;12611;44.446;26.000;2023-04-05T01:42:45;9.00;97.90
24426;DHT22;12611;44.446;26.000;2023-04-05T01:45:15;8.90;97.90
24426;DHT22;12611;44.446;26.000;2023-04-05T01:47:43;9.00;98.00
24426;DHT22;12611;44.446;26.000;2023-04-05T01:50:12;8.90;98.00
24426;DHT22;12611;44.446;26.000;2023-04-05T01:52:40;8.90;97.90
24426;DHT22;12611;44.446;26.000;2023-04-05T01:55:09;9.00;97.90
24426;DHT22;12611;44.446;26.000;2023-04-05T01:57:37;9.00;97.90
24426;DHT22;12611;44.446;26.000;2023-04-05T02:00:07;9.00;97.90
24426;DHT22;12611;44.446;26.000;2023-04-05T02:02:37;9.00;97.90
24426;DHT22;12611;44.446;26.000;2023-04-05T02:05:07;9.00;98.00
24426;DHT22;12611;44.446;26.000;2023-04-05T02:07:35;9.10;97.90
24426;DHT22;12611;44.446;26.000;2023-04-05T02:10:04;9.00;97.90
24426;DHT22;12611;44.446;26.000;2023-04-05T02:12:33;9.10;97.90
24426;DHT22;12611;44.446;26.000;2023-04-05T02:15:01;9.10;98.00
24426;DHT22;12611;44.446;26.000;2023-04-05T02:17:30;9.10;98.00
24426;DHT22;12611;44.446;26.000;2023-04-05T02:20:08;9.10;97.90
24426;DHT22;12611;44.446;26.000;2023-04-05T02:22:38;9.10;97.90
24426;DHT22;12611;44.446;26.000;2023-04-05T02:25:07;9.10;97.90
24426;DHT22;12611;44.446;26.000;2023-04-05T02:27:36;9.10;97.90
24426;DHT22;12611;44.446;26.000;2023-04-05T02:30:05;9.20;97.90
24426;DHT22;12611;44.446;26.000;2023-04-05T02:32:34;9.20;97.90
24426;DHT22;12611;44.446;26.000;2023-04-05T02:35:02;9.20;97.80
24426;DHT22;12611;44.446;26.000;2023-04-05T02:37:32;9.20;97.80
24426;DHT22;12611;44.446;26.000;2023-04-05T02:40:01;9.20;97.80
24426;DHT22;12611;44.446;26.000;2023-04-05T02:42:31;9.20;97.80
24426;DHT22;12611;44.446;26.000;2023-04-05T02:44:59;9.30;97.80
24426;DHT22;12611;44.446;26.000;2023-04-05T02:47:28;9.30;97.80
24426;DHT22;12611;44.446;26.000;2023-04-05T02:49:56;9.20;97.80
24426;DHT22;12611;44.446;26.000;2023-04-05T02:52:24;9.30;97.80
24426;DHT22;12611;44.446;26.000;2023-04-05T02:54:54;9.20;97.80
24426;DHT22;12611;44.446;26.000;2023-04-05T02:57:22;9.20;97.90
24426;DHT22;12611;44.446;26.000;2023-04-05T02:59:51;9.30;97.90
24426;DHT22;12611;44.446;26.000;2023-04-05T03:02:20;9.20;97.80
24426;DHT22;12611;44.446;26.000;2023-04-05T03:04:51;9.20;97.80
24426;DHT22;12611;44.446;26.000;2023-04-05T03:07:19;9.30;97.80
24426;DHT22;12611;44.446;26.000;2023-04-05T03:09:47;9.30;97.80
24426;DHT22;12611;44.446;26.000;2023-04-05T03:12:18;9.30;97.80
24426;DHT22;12611;44.446;26.000;2023-04-05T03:14:47;9.30;97.70
24426;DHT22;12611;44.446;26.000;2023-04-05T03:17:15;9.30;97.70
24426;DHT22;12611;44.446;26.000;2023-04-05T03:19:43;9.30;97.70
24426;DHT22;12611;44.446;26.000;2023-04-05T03:22:12;9.30;97.70
24426;DHT22;12611;44.446;26.000;2023-04-05T03:24:40;9.30;97.70
24426;DHT22;12611;44.446;26.000;2023-04-05T03:27:10;9.30;97.70
24426;DHT22;12611;44.446;26.000;2023-04-05T03:29:42;9.30;97.60
24426;DHT22;12611;44.446;26.000;2023-04-05T03:32:10;9.30;97.60
24426;DHT22;12611;44.446;26.000;2023-04-05T03:34:39;9.30;97.60
24426;DHT22;12611;44.446;26.000;2023-04-05T03:37:08;9.30;97.60
24426;DHT22;12611;44.446;26.000;2023-04-05T03:39:37;9.30;97.60
24426;DHT22;12611;44.446;26.000;2023-04-05T03:42:05;9.30;97.60
24426;DHT22;12611;44.446;26.000;2023-04-05T03:44:33;9.30;97.60
24426;DHT22;12611;44.446;26.000;2023-04-05T03:47:03;9.20;97.60
24426;DHT22;12611;44.446;26.000;2023-04-05T03:49:31;9.20;97.60
24426;DHT22;12611;44.446;26.000;2023-04-05T03:52:00;9.20;97.60
24426;DHT22;12611;44.446;26.000;2023-04-05T03:54:28;9.30;97.60
24426;DHT22;12611;44.446;26.000;2023-04-05T03:56:56;9.20;97.60
24426;DHT22;12611;44.446;26.000;2023-04-05T03:59:25;9.20;97.60
24426;DHT22;12611;44.446;26.000;2023-04-05T04:01:54;9.20;97.60
24426;DHT22;12611;44.446;26.000;2023-04-05T04:04:23;9.20;97.60
24426;DHT22;12611;44.446;26.000;2023-04-05T04:06:53;9.20;97.60
24426;DHT22;12611;44.446;26.000;2023-04-05T04:09:22;9.20;97.50
24426;DHT22;12611;44.446;26.000;2023-04-05T04:11:50;9.20;97.60
24426;DHT22;12611;44.446;26.000;2023-04-05T04:14:19;9.30;97.60
24426;DHT22;12611;44.446;26.000;2023-04-05T04:16:47;9.30;97.60
24426;DHT22;12611;44.446;26.000;2023-04-05T04:19:16;9.30;97.50
24426;DHT22;12611;44.446;26.000;2023-04-05T04:21:46;9.30;97.50
24426;DHT22;12611;44.446;26.000;2023-04-05T04:24:18;9.30;97.50
24426;DHT22;12611;44.446;26.000;2023-04-05T04:26:47;9.30;97.50
24426;DHT22;12611;44.446;26.000;2023-04-05T04:29:15;9.30;97.40
24426;DHT22;12611;44.446;26.000;2023-04-05T04:31:44;9.30;97.40
24426;DHT22;12611;44.446;26.000;2023-04-05T04:34:14;9.30;97.40
24426;DHT22;12611;44.446;26.000;2023-04-05T04:36:46;9.30;97.30
24426;DHT22;12611;44.446;26.000;2023-04-05T04:39:23;9.30;97.40
24426;DHT22;12611;44.446;26.000;2023-04-05T04:41:53;9.30;97.40
24426;DHT22;12611;44.446;26.000;2023-04-05T04:44:22;9.30;97.30
24426;DHT22;12611;44.446;26.000;2023-04-05T04:46:54;9.30;97.40
24426;DHT22;12611;44.446;26.000;2023-04-05T04:49:22;9.30;97.30
24426;DHT22;12611;44.446;26.000;2023-04-05T04:51:52;9.30;97.30
24426;DHT22;12611;44.446;26.000;2023-04-05T04:54:20;9.30;97.30
24426;DHT22;12611;44.446;26.000;2023-04-05T04:56:48;9.30;97.40
24426;DHT22;12611;44.446;26.000;2023-04-05T04:59:17;9.30;97.30
24426;DHT22;12611;44.446;26.000;2023-04-05T05:01:45;9.30;97.40
24426;DHT22;12611;44.446;26.000;2023-04-05T05:04:14;9.30;97.30
24426;DHT22;12611;44.446;26.000;2023-04-05T05:06:42;9.30;97.30
24426;DHT22;12611;44.446;26.000;2023-04-05T05:09:12;9.40;97.30
24426;DHT22;12611;44.446;26.000;2023-04-05T05:11:40;9.40;97.30
24426;DHT22;12611;44.446;26.000;2023-04-05T05:14:08;9.40;97.20
24426;DHT22;12611;44.446;26.000;2023-04-05T05:16:37;9.40;97.20
24426;DHT22;12611;44.446;26.000;2023-04-05T05:19:05;9.40;97.10
24426;DHT22;12611;44.446;26.000;2023-04-05T05:21:33;9.40;97.10
24426;DHT22;12611;44.446;26.000;2023-04-05T05:24:02;9.40;97.00
24426;DHT22;12611;44.446;26.000;2023-04-05T05:26:34;9.40;97.00
24426;DHT22;12611;44.446;26.000;2023-04-05T05:29:04;9.40;96.90
24426;DHT22;12611;44.446;26.000;2023-04-05T05:31:32;9.40;96.90
24426;DHT22;12611;44.446;26.000;2023-04-05T05:34:00;9.40;96.90
24426;DHT22;12611;44.446;26.000;2023-04-05T05:36:28;9.50;96.80
24426;DHT22;12611;44.446;26.000;2023-04-05T05:38:57;9.50;96.80
24426;DHT22;12611;44.446;26.000;2023-04-05T05:41:25;9.50;96.90
24426;DHT22;12611;44.446;26.000;2023-04-05T05:43:55;9.50;96.80
24426;DHT22;12611;44.446;26.000;2023-04-05T05:46:23;9.50;96.70
24426;DHT22;12611;44.446;26.000;2023-04-05T05:48:52;9.50;96.70
24426;DHT22;12611;44.446;26.000;2023-04-05T05:51:21;9.60;96.70
24426;DHT22;12611;44.446;26.000;2023-04-05T05:53:49;9.60;96.70
24426;DHT22;12611;44.446;26.000;2023-04-05T05:56:18;9.50;96.60
24426;DHT22;12611;44.446;26.000;2023-04-05T05:58:46;9.60;96.60
24426;DHT22;12611;44.446;26.000;2023-04-05T06:01:17;9.60;96.60
24426;DHT22;12611;44.446;26.000;2023-04-05T06:03:49;9.60;96.60
24426;DHT22;12611;44.446;26.000;2023-04-05T06:06:17;9.60;96.50
24426;DHT22;12611;44.446;26.000;2023-04-05T06:08:46;9.60;96.20
24426;DHT22;12611;44.446;26.000;2023-04-05T06:11:19;9.60;96.20
24426;DHT22;12611;44.446;26.000;2023-04-05T06:13:48;9.60;96.00
24426;DHT22;12611;44.446;26.000;2023-04-05T06:16:19;9.60;96.00
24426;DHT22;12611;44.446;26.000;2023-04-05T06:18:47;9.60;96.00
24426;DHT22;12611;44.446;26.000;2023-04-05T06:21:16;9.70;96.00
24426;DHT22;12611;44.446;26.000;2023-04-05T06:23:44;9.70;96.00
24426;DHT22;12611;44.446;26.000;2023-04-05T06:26:16;9.70;95.90
24426;DHT22;12611;44.446;26.000;2023-04-05T06:28:46;9.80;96.00
24426;DHT22;12611;44.446;26.000;2023-04-05T06:31:15;9.80;96.00
24426;DHT22;12611;44.446;26.000;2023-04-05T06:33:45;9.80;95.90
24426;DHT22;12611;44.446;26.000;2023-04-05T06:36:13;9.80;95.90
24426;DHT22;12611;44.446;26.000;2023-04-05T06:38:42;9.80;95.70
24426;DHT22;12611;44.446;26.000;2023-04-05T06:41:10;9.80;95.80
24426;DHT22;12611;44.446;26.000;2023-04-05T06:43:39;9.80;95.80
24426;DHT22;12611;44.446;26.000;2023-04-05T06:46:07;9.80;95.70
24426;DHT22;12611;44.446;26.000;2023-04-05T06:48:37;9.90;95.70
24426;DHT22;12611;44.446;26.000;2023-04-05T06:51:07;9.80;95.80
24426;DHT22;12611;44.446;26.000;2023-04-05T06:53:35;9.90;95.80
24426;DHT22;12611;44.446;26.000;2023-04-05T06:56:04;9.90;95.80
24426;DHT22;12611;44.446;26.000;2023-04-05T06:58:32;9.90;95.70
24426;DHT22;12611;44.446;26.000;2023-04-05T07:01:00;10.00;95.70
24426;DHT22;12611;44.446;26.000;2023-04-05T07:03:29;10.00;95.80
24426;DHT22;12611;44.446;26.000;2023-04-05T07:05:59;10.00;95.60
24426;DHT22;12611;44.446;26.000;2023-04-05T07:08:31;9.90;96.00
24426;DHT22;12611;44.446;26.000;2023-04-05T07:11:00;9.90;95.70
24426;DHT22;12611;44.446;26.000;2023-04-05T07:13:28;10.10;95.80
24426;DHT22;12611;44.446;26.000;2023-04-05T07:16:00;10.10;95.80
24426;DHT22;12611;44.446;26.000;2023-04-05T07:18:32;10.10;95.80
24426;DHT22;12611;44.446;26.000;2023-04-05T07:21:07;10.20;95.80
24426;DHT22;12611;44.446;26.000;2023-04-05T07:23:39;10.20;95.70
24426;DHT22;12611;44.446;26.000;2023-04-05T07:26:08;10.20;95.50
24426;DHT22;12611;44.446;26.000;2023-04-05T07:28:36;10.20;95.50
24426;DHT22;12611;44.446;26.000;2023-04-05T07:31:06;10.30;95.60
24426;DHT22;12611;44.446;26.000;2023-04-05T07:33:34;10.30;95.40
24426;DHT22;12611;44.446;26.000;2023-04-05T07:36:03;10.30;95.50
24426;DHT22;12611;44.446;26.000;2023-04-05T07:38:31;10.30;95.40
24426;DHT22;12611;44.446;26.000;2023-04-05T07:41:01;10.40;95.40
24426;DHT22;12611;44.446;26.000;2023-04-05T07:43:29;10.40;95.30
24426;DHT22;12611;44.446;26.000;2023-04-05T07:46:01;10.40;95.30
24426;DHT22;12611;44.446;26.000;2023-04-05T07:48:30;10.40;95.30
24426;DHT22;12611;44.446;26.000;2023-04-05T07:51:03;10.50;95.30
24426;DHT22;12611;44.446;26.000;2023-04-05T07:53:32;10.50;95.30
24426;DHT22;12611;44.446;26.000;2023-04-05T07:56:03;10.50;95.30
24426;DHT22;12611;44.446;26.000;2023-04-05T07:58:32;10.60;95.30
24426;DHT22;12611;44.446;26.000;2023-04-05T08:01:01;10.60;95.30
24426;DHT22;12611;44.446;26.000;2023-04-05T08:03:30;10.60;95.30
24426;DHT22;12611;44.446;26.000;2023-04-05T08:06:08;10.70;95.30
24426;DHT22;12611;44.446;26.000;2023-04-05T08:08:37;10.60;95.00
24426;DHT22;12611;44.446;26.000;2023-04-05T08:11:07;10.70;95.00
24426;DHT22;12611;44.446;26.000;2023-04-05T08:13:35;10.70;95.00
24426;DHT22;12611;44.446;26.000;2023-04-05T08:16:06;10.80;95.00
24426;DHT22;12611;44.446;26.000;2023-04-05T08:18:35;10.90;95.00
24426;DHT22;12611;44.446;26.000;2023-04-05T08:21:03;11.00;95.10
24426;DHT22;12611;44.446;26.000;2023-04-05T08:23:32;11.00;94.50
24426;DHT22;12611;44.446;26.000;2023-04-05T08:26:15;11.10;94.60
24426;DHT22;12611;44.446;26.000;2023-04-05T08:28:44;11.10;94.50
24426;DHT22;12611;44.446;26.000;2023-04-05T08:31:13;11.10;94.40
24426;DHT22;12611;44.446;26.000;2023-04-05T08:33:42;11.10;94.40
24426;DHT22;12611;44.446;26.000;2023-04-05T08:36:10;11.10;93.90
24426;DHT22;12611;44.446;26.000;2023-04-05T08:38:39;11.10;93.80
24426;DHT22;12611;44.446;26.000;2023-04-05T08:41:12;11.10;93.90
24426;DHT22;12611;44.446;26.000;2023-04-05T08:43:56;11.20;93.90
24426;DHT22;12611;44.446;26.000;2023-04-05T08:46:26;11.10;93.50
24426;DHT22;12611;44.446;26.000;2023-04-05T08:48:57;11.10;93.50
24426;DHT22;12611;44.446;26.000;2023-04-05T08:51:25;11.10;93.60
24426;DHT22;12611;44.446;26.000;2023-04-05T08:53:54;11.20;93.60
24426;DHT22;12611;44.446;26.000;2023-04-05T08:56:27;11.20;93.40
24426;DHT22;12611;44.446;26.000;2023-04-05T08:59:01;11.30;93.50
24426;DHT22;12611;44.446;26.000;2023-04-05T09:01:31;11.30;93.20
24426;DHT22;12611;44.446;26.000;2023-04-05T09:04:06;11.30;93.20
24426;DHT22;12611;44.446;26.000;2023-04-05T09:06:36;11.40;93.30
24426;DHT22;12611;44.446;26.000;2023-04-05T09:09:06;11.50;93.30
24426;DHT22;12611;44.446;26.000;2023-04-05T09:11:37;11.60;93.00
24426;DHT22;12611;44.446;26.000;2023-04-05T09:14:06;11.70;93.00
24426;DHT22;12611;44.446;26.000;2023-04-05T09:16:37;11.80;92.70
24426;DHT22;12611;44.446;26.000;2023-04-05T09:19:06;11.90;92.70
24426;DHT22;12611;44.446;26.000;2023-04-05T09:21:57;12.00;92.20
24426;DHT22;12611;44.446;26.000;2023-04-05T09:24:33;12.30;92.30
24426;DHT22;12611;44.446;26.000;2023-04-05T09:27:09;12.40;91.80
24426;DHT22;12611;44.446;26.000;2023-04-05T09:29:39;12.50;90.90
24426;DHT22;12611;44.446;26.000;2023-04-05T09:32:08;12.60;91.20
24426;DHT22;12611;44.446;26.000;2023-04-05T09:34:38;12.60;90.40
24426;DHT22;12611;44.446;26.000;2023-04-05T09:37:13;12.70;90.40
24426;DHT22;12611;44.446;26.000;2023-04-05T09:40:01;12.70;90.10
24426;DHT22;12611;44.446;26.000;2023-04-05T09:42:42;12.80;90.30
24426;DHT22;12611;44.446;26.000;2023-04-05T09:45:12;12.90;90.40
24426;DHT22;12611;44.446;26.000;2023-04-05T09:47:40;13.00;90.20
24426;DHT22;12611;44.446;26.000;2023-04-05T09:50:19;13.10;90.30
24426;DHT22;12611;44.446;26.000;2023-04-05T09:52:47;13.10;90.20
24426;DHT22;12611;44.446;26.000;2023-04-05T09:55:25;13.10;88.90
24426;DHT22;12611;44.446;26.000;2023-04-05T09:57:55;13.10;88.50
24426;DHT22;12611;44.446;26.000;2023-04-05T10:00:24;13.10;88.30
24426;DHT22;12611;44.446;26.000;2023-04-05T10:02:54;13.10;88.50
24426;DHT22;12611;44.446;26.000;2023-04-05T10:05:25;13.20;88.70
24426;DHT22;12611;44.446;26.000;2023-04-05T10:07:54;13.20;87.10
24426;DHT22;12611;44.446;26.000;2023-04-05T10:10:24;13.30;87.40
24426;DHT22;12611;44.446;26.000;2023-04-05T10:12:55;13.30;87.20
24426;DHT22;12611;44.446;26.000;2023-04-05T10:15:25;13.40;87.20
24426;DHT22;12611;44.446;26.000;2023-04-05T10:17:59;13.50;86.50
24426;DHT22;12611;44.446;26.000;2023-04-05T10:20:32;13.60;86.40
24426;DHT22;12611;44.446;26.000;2023-04-05T10:23:06;13.60;84.30
24426;DHT22;12611;44.446;26.000;2023-04-05T10:25:46;13.60;85.10
24426;DHT22;12611;44.446;26.000;2023-04-05T10:28:28;13.70;85.80
24426;DHT22;12611;44.446;26.000;2023-04-05T10:31:04;13.70;84.10
24426;DHT22;12611;44.446;26.000;2023-04-05T10:33:49;13.70;83.50
24426;DHT22;12611;44.446;26.000;2023-04-05T10:36:24;13.80;83.50
24426;DHT22;12611;44.446;26.000;2023-04-05T10:39:02;13.90;83.90
24426;DHT22;12611;44.446;26.000;2023-04-05T10:41:34;13.90;81.70
24426;DHT22;12611;44.446;26.000;2023-04-05T10:44:13;14.00;82.60
24426;DHT22;12611;44.446;26.000;2023-04-05T10:46:53;14.00;82.20
24426;DHT22;12611;44.446;26.000;2023-04-05T10:49:31;14.10;82.50
24426;DHT22;12611;44.446;26.000;2023-04-05T10:52:01;14.10;82.70
24426;DHT22;12611;44.446;26.000;2023-04-05T10:54:32;14.20;82.90
24426;DHT22;12611;44.446;26.000;2023-04-05T10:57:07;14.20;83.00
24426;DHT22;12611;44.446;26.000;2023-04-05T10:59:41;14.30;83.10
24426;DHT22;12611;44.446;26.000;2023-04-05T11:02:11;14.30;82.70
24426;DHT22;12611;44.446;26.000;2023-04-05T11:04:40;14.30;81.50
24426;DHT22;12611;44.446;26.000;2023-04-05T11:07:10;14.30;81.40
24426;DHT22;12611;44.446;26.000;2023-04-05T11:09:50;14.30;82.00
24426;DHT22;12611;44.446;26.000;2023-04-05T11:12:18;14.30;82.20
24426;DHT22;12611;44.446;26.000;2023-04-05T11:14:47;14.40;82.10
24426;DHT22;12611;44.446;26.000;2023-04-05T11:17:25;14.50;82.00
24426;DHT22;12611;44.446;26.000;2023-04-05T11:20:04;14.40;80.70
24426;DHT22;12611;44.446;26.000;2023-04-05T11:22:32;14.50;80.90
24426;DHT22;12611;44.446;26.000;2023-04-05T11:25:01;14.50;80.50
24426;DHT22;12611;44.446;26.000;2023-04-05T11:27:31;14.60;80.90
24426;DHT22;12611;44.446;26.000;2023-04-05T11:30:01;14.60;79.90
24426;DHT22;12611;44.446;26.000;2023-04-05T11:32:39;14.70;78.40
24426;DHT22;12611;44.446;26.000;2023-04-05T11:35:13;14.80;78.00
24426;DHT22;12611;44.446;26.000;2023-04-05T11:37:54;14.90;78.70
24426;DHT22;12611;44.446;26.000;2023-04-05T11:40:26;15.00;78.20
24426;DHT22;12611;44.446;26.000;2023-04-05T11:43:00;15.10;79.30
24426;DHT22;12611;44.446;26.000;2023-04-05T11:45:29;15.20;78.40
24426;DHT22;12611;44.446;26.000;2023-04-05T11:47:59;15.30;78.40
24426;DHT22;12611;44.446;26.000;2023-04-05T11:50:30;15.50;78.80
24426;DHT22;12611;44.446;26.000;2023-04-05T11:53:12;15.60;78.30
24426;DHT22;12611;44.446;26.000;2023-04-05T11:55:41;15.80;77.60
24426;DHT22;12611;44.446;26.000;2023-04-05T11:58:11;15.80;77.00
24426;DHT22;12611;44.446;26.000;2023-04-05T12:00:40;15.90;77.50
24426;DHT22;12611;44.446;26.000;2023-04-05T12:03:11;16.10;78.80
24426;DHT22;12611;44.446;26.000;2023-04-05T12:05:48;16.20;77.50
24426;DHT22;12611;44.446;26.000;2023-04-05T12:08:17;16.00;76.90
24426;DHT22;12611;44.446;26.000;2023-04-05T12:10:53;15.90;76.70
24426;DHT22;12611;44.446;26.000;2023-04-05T12:13:26;15.70;75.60
24426;DHT22;12611;44.446;26.000;2023-04-05T12:15:59;15.60;76.10
24426;DHT22;12611;44.446;26.000;2023-04-05T12:18:30;15.50;76.50
24426;DHT22;12611;44.446;26.000;2023-04-05T12:21:01;15.50;77.20
24426;DHT22;12611;44.446;26.000;2023-04-05T12:23:33;15.50;77.20
24426;DHT22;12611;44.446;26.000;2023-04-05T12:26:01;15.50;77.30
24426;DHT22;12611;44.446;26.000;2023-04-05T12:28:48;15.40;77.50
24426;DHT22;12611;44.446;26.000;2023-04-05T12:31:17;15.40;77.90
24426;DHT22;12611;44.446;26.000;2023-04-05T12:33:45;15.40;78.00
24426;DHT22;12611;44.446;26.000;2023-04-05T12:36:15;15.30;78.30
24426;DHT22;12611;44.446;26.000;2023-04-05T12:38:43;15.30;78.20
24426;DHT22;12611;44.446;26.000;2023-04-05T12:41:14;15.20;78.30
24426;DHT22;12611;44.446;26.000;2023-04-05T12:43:43;15.20;78.30
24426;DHT22;12611;44.446;26.000;2023-04-05T12:46:15;15.20;78.50
24426;DHT22;12611;44.446;26.000;2023-04-05T12:48:49;15.10;78.20
24426;DHT22;12611;44.446;26.000;2023-04-05T12:51:23;15.10;78.30
24426;DHT22;12611;44.446;26.000;2023-04-05T12:53:56;15.00;78.40
24426;DHT22;12611;44.446;26.000;2023-04-05T12:56:27;15.00;78.30
24426;DHT22;12611;44.446;26.000;2023-04-05T12:58:56;14.90;78.60
24426;DHT22;12611;44.446;26.000;2023-04-05T13:01:24;14.80;78.60
24426;DHT22;12611;44.446;26.000;2023-04-05T13:03:53;14.70;78.70
24426;DHT22;12611;44.446;26.000;2023-04-05T13:06:40;14.70;79.00
24426;DHT22;12611;44.446;26.000;2023-04-05T13:09:08;14.70;78.80
24426;DHT22;12611;44.446;26.000;2023-04-05T13:11:36;14.70;79.30
24426;DHT22;12611;44.446;26.000;2023-04-05T13:14:05;14.70;79.30
24426;DHT22;12611;44.446;26.000;2023-04-05T13:16:33;14.70;79.00
24426;DHT22;12611;44.446;26.000;2023-04-05T13:19:02;14.70;79.30
24426;DHT22;12611;44.446;26.000;2023-04-05T13:21:30;14.70;79.60
24426;DHT22;12611;44.446;26.000;2023-04-05T13:24:00;14.70;79.80
24426;DHT22;12611;44.446;26.000;2023-04-05T13:26:28;14.70;79.60
24426;DHT22;12611;44.446;26.000;2023-04-05T13:29:03;14.60;79.00
24426;DHT22;12611;44.446;26.000;2023-04-05T13:31:36;14.70;79.20
24426;DHT22;12611;44.446;26.000;2023-04-05T13:34:04;14.60;79.70
24426;DHT22;12611;44.446;26.000;2023-04-05T13:36:35;14.60;79.60
24426;DHT22;12611;44.446;26.000;2023-04-05T13:39:09;14.60;79.90
24426;DHT22;12611;44.446;26.000;2023-04-05T13:41:37;14.70;80.50
24426;DHT22;12611;44.446;26.000;2023-04-05T13:44:06;14.70;80.50
24426;DHT22;12611;44.446;26.000;2023-04-05T13:46:34;14.70;80.60
24426;DHT22;12611;44.446;26.000;2023-04-05T13:49:03;14.60;80.20
24426;DHT22;12611;44.446;26.000;2023-04-05T13:51:31;14.60;80.40
24426;DHT22;12611;44.446;26.000;2023-04-05T13:54:00;14.60;80.30
24426;DHT22;12611;44.446;26.000;2023-04-05T13:56:30;14.60;80.10
24426;DHT22;12611;44.446;26.000;2023-04-05T13:58:58;14.50;80.30
24426;DHT22;12611;44.446;26.000;2023-04-05T14:01:27;14.40;80.70
24426;DHT22;12611;44.446;26.000;2023-04-05T14:03:55;14.40;80.90
24426;DHT22;12611;44.446;26.000;2023-04-05T14:06:24;14.40;81.50
24426;DHT22;12611;44.446;26.000;2023-04-05T14:08:53;14.30;81.40
24426;DHT22;12611;44.446;26.000;2023-04-05T14:11:21;14.20;81.70
24426;DHT22;12611;44.446;26.000;2023-04-05T14:13:51;14.20;81.40
24426;DHT22;12611;44.446;26.000;2023-04-05T14:16:20;14.20;81.60
24426;DHT22;12611;44.446;26.000;2023-04-05T14:18:48;14.10;82.00
24426;DHT22;12611;44.446;26.000;2023-04-05T14:21:17;14.10;82.10
24426;DHT22;12611;44.446;26.000;2023-04-05T14:23:46;14.20;82.00
24426;DHT22;12611;44.446;26.000;2023-04-05T14:26:16;14.20;81.90
24426;DHT22;12611;44.446;26.000;2023-04-05T14:28:45;14.20;81.80
24426;DHT22;12611;44.446;26.000;2023-04-05T14:31:14;14.10;82.40
24426;DHT22;12611;44.446;26.000;2023-04-05T14:33:43;14.10;82.20
24426;DHT22;12611;44.446;26.000;2023-04-05T14:36:12;14.00;82.70
24426;DHT22;12611;44.446;26.000;2023-04-05T14:38:40;14.00;83.00
24426;DHT22;12611;44.446;26.000;2023-04-05T14:41:08;13.90;83.00
24426;DHT22;12611;44.446;26.000;2023-04-05T14:43:37;13.90;83.10
24426;DHT22;12611;44.446;26.000;2023-04-05T14:46:05;13.80;83.20
24426;DHT22;12611;44.446;26.000;2023-04-05T14:48:35;13.80;83.30
24426;DHT22;12611;44.446;26.000;2023-04-05T14:51:04;13.70;83.20
24426;DHT22;12611;44.446;26.000;2023-04-05T14:53:33;13.60;83.20
24426;DHT22;12611;44.446;26.000;2023-04-05T14:56:02;13.50;83.50
24426;DHT22;12611;44.446;26.000;2023-04-05T14:58:30;13.50;83.60
24426;DHT22;12611;44.446;26.000;2023-04-05T15:01:00;13.40;83.50
24426;DHT22;12611;44.446;26.000;2023-04-05T15:03:28;13.30;83.80
24426;DHT22;12611;44.446;26.000;2023-04-05T15:05:58;13.20;83.70
24426;DHT22;12611;44.446;26.000;2023-04-05T15:08:27;13.20;84.20
24426;DHT22;12611;44.446;26.000;2023-04-05T15:10:55;13.10;84.50
24426;DHT22;12611;44.446;26.000;2023-04-05T15:13:24;13.00;84.90
24426;DHT22;12611;44.446;26.000;2023-04-05T15:15:53;13.00;85.40
24426;DHT22;12611;44.446;26.000;2023-04-05T15:18:21;13.00;86.20
24426;DHT22;12611;44.446;26.000;2023-04-05T15:20:49;13.00;85.90
24426;DHT22;12611;44.446;26.000;2023-04-05T15:23:20;12.90;86.10
24426;DHT22;12611;44.446;26.000;2023-04-05T15:25:49;12.90;86.20
24426;DHT22;12611;44.446;26.000;2023-04-05T15:28:17;12.90;86.10
24426;DHT22;12611;44.446;26.000;2023-04-05T15:30:45;12.90;85.90
24426;DHT22;12611;44.446;26.000;2023-04-05T15:33:14;12.90;86.10
24426;DHT22;12611;44.446;26.000;2023-04-05T15:35:43;12.80;86.40
24426;DHT22;12611;44.446;26.000;2023-04-05T15:38:12;12.80;86.70
24426;DHT22;12611;44.446;26.000;2023-04-05T15:40:41;12.80;87.00
24426;DHT22;12611;44.446;26.000;2023-04-05T15:43:13;12.70;86.70